Tropical Cyclones
[Index]
Main Index Home Page Stock Weather Photos Extreme Storms Discussion Storm News and Storm Chasing Reports Tropical Cyclones / Hurricanes / Typhoons Weather Data and Links Wild Fires / Bushfires Weather Observation Techniques Weather Picture Catalogue Tornado Pictures and Reports Stock Video Footage and DVDs for sale
Season 1993-1994 Tropical Cyclone REWA Track Map
Season 1993-1994 Summaries: [BoM-AU] [JTWC-AU] [JTWC-SIO] [JTWC-SPAC] [JTWC-SH]
<<- Previous TC | JTWC 1993-1994 Season | Next TC ->>

click for intensity scale information  Lat/long Grid: Show Hide

 Date Labels: Show Hide

Joint Typhoon Warning Centre Cyclone Data

Name: REWA

26 Dec 1993 06:00 UTC to 21 Jan 1994 18:00 UTC

    date/time    lat    long     hPa   cat  kts
1993-12-26 06    3.9   170.9                  15          
1993-12-26 12    4.4   171.5                  20          
1993-12-26 18    5.0   172.0                  20          
1993-12-27 00    5.9   172.2                  20          
1993-12-27 06    6.9   172.0                  25          
1993-12-27 12    7.8   171.5                  25          
1993-12-27 18    8.5   170.6                  30          
1993-12-28 00    9.0   169.3                  30          
1993-12-28 06    9.4   167.8                  30          
1993-12-28 12    9.8   166.1                  35          
1993-12-28 18   10.2   164.4            1     40          
1993-12-29 00   10.6   162.7            1     40          
1993-12-29 06   10.9   161.2            1     45          
1993-12-29 12   11.1   159.8            1     45          
1993-12-29 18   11.3   158.6            1     50          
1993-12-30 00   11.4   157.5            2     55          
1993-12-30 06   11.5   156.5            2     60          
1993-12-30 12   11.7   155.5            2     65          
1993-12-30 18   11.9   154.6            2     70          
1993-12-31 00   12.1   153.9            3     75          
1993-12-31 06   12.4   153.4            3     75          
1993-12-31 12   12.8   153.1            3     75          
1993-12-31 18   13.2   153.0            3     80          
1994-01-01 00   13.6   153.0            3     80          
1994-01-01 06   14.0   153.1            3     80          
1994-01-01 12   14.5   153.2            3     85          
1994-01-01 18   15.0   153.3            3     90          
1994-01-02 00   15.5   153.4            4    100          
1994-01-02 06   16.2   153.6            4    115          
1994-01-02 12   17.0   153.8            4    120          
1994-01-02 18   17.9   154.0            5    125          
1994-01-03 00   18.8   154.2            5    125          
1994-01-03 06   19.6   154.7            4    120          
1994-01-03 12   20.4   155.4            4    115          
1994-01-03 18   21.0   156.3            4    110          
1994-01-04 00   21.5   157.4            4    105          
1994-01-04 06   21.8   158.9            4    100          
1994-01-04 12   22.0   160.6            3     95          
1994-01-04 18   22.1   162.2            3     85          
1994-01-05 00   22.0   163.7            3     75          
1994-01-05 06   22.1   165.0            2     65          
1994-01-05 12   22.1   166.0            2     55          
1994-01-05 18   22.0   166.8            1     50          
1994-01-06 00   22.0   167.4            1     45          
1994-01-06 06   21.9   167.9            1     40          
1994-01-06 12   21.6   168.5                  35          
1994-01-06 18   21.1   168.7                  30          
1994-01-07 00   20.6   168.8                  30          
1994-01-07 06   20.1   168.6                  25          
1994-01-07 12   19.7   168.3                  25          
1994-01-07 18   19.3   168.1                  25          
1994-01-08 00   19.0   167.7                  25          
1994-01-08 06   18.8   167.2                  20          
1994-01-08 12   18.5   166.6                  20          
1994-01-08 18   18.3   165.8                  20          
1994-01-09 00   18.1   164.9                  20          
1994-01-09 06   17.6   164.0                  20          
1994-01-09 12   16.9   163.0                  20          
1994-01-09 18   16.2   162.0                  25          
1994-01-10 00   15.7   161.0                  25          
1994-01-10 06   15.5   160.0                  25          
1994-01-10 12   15.5   158.9                  25          
1994-01-10 18   15.4   157.9                  25          
1994-01-11 00   15.3   156.9                  25          
1994-01-11 06   15.3   156.0                  25          
1994-01-11 12   15.1   155.1                  25          
1994-01-11 18   14.5   154.4                  25          
1994-01-12 00   13.8   154.0                  25          
1994-01-12 06   13.1   153.7                  25          
1994-01-12 12   12.5   153.5                  25          
1994-01-12 18   12.0   153.4                  30          
1994-01-13 00   11.7   153.4                  30          
1994-01-13 06   11.5   153.6                  35          
1994-01-13 12   11.4   153.9                  35          
1994-01-13 18   11.5   154.2            1     40          
1994-01-14 00   11.7   154.4            1     45          
1994-01-14 06   11.9   154.6            1     50          
1994-01-14 12   12.2   154.8            2     55          
1994-01-14 18   12.4   155.0            2     60          
1994-01-15 00   12.7   155.2            2     65          
1994-01-15 06   13.2   155.6            2     70          
1994-01-15 12   13.9   156.0            3     80          
1994-01-15 18   14.7   156.4            3     90          
1994-01-16 00   15.5   156.8            4    100          
1994-01-16 06   16.4   157.3            4    115          
1994-01-16 12   17.3   157.8            5    125          
1994-01-16 18   18.3   157.9            4    120          
1994-01-17 00   19.2   157.4            4    110          
1994-01-17 06   20.2   156.8            3     95          
1994-01-17 12   20.8   155.8            3     80          
1994-01-17 18   21.1   154.7            2     70          
1994-01-18 00   21.3   153.6            2     65          
1994-01-18 06   21.3   152.7            2     60          
1994-01-18 12   21.2   152.1            2     55          
1994-01-18 18   21.1   151.6            1     50          
1994-01-19 00   21.4   151.6            1     50          
1994-01-19 06   21.9   151.7            1     45          
1994-01-19 12   22.4   151.9            1     45          
1994-01-19 18   22.9   152.2            1     40          
1994-01-20 00   23.5   152.7            1     40          
1994-01-20 06   24.2   153.4            1     40          
1994-01-20 12   24.9   154.3            1     40          
1994-01-20 18   25.7   155.2                  35          
1994-01-21 00   26.6   156.2                  35          
1994-01-21 06   27.5   157.3                  35          
1994-01-21 12   28.5   158.8                  30          
1994-01-21 18   29.6   161.0                  30          
Winds are 1-min average.

Tropical cyclone tracks developed by Michael Bath using data from the Joint Typhoon Warning Centre Best Tracks and Google Maps.


[Australian Severe Weather index] [Copyright Notice] [Email Contacts] [Search This Site] [Privacy Policy]
Document: tropical_cyclone_rewa.htm Updated: 18 September 2016